Time;durP1;ratioP1;P1;durP2;ratioP2;P2;SDS_P1;SDS_P2;PMS_P1;PMS_P2;Temp;Humidity;BMP_temperature;BMP_pressure;BME280_temperature;BME280_humidity;BME280_pressure;Samples;Min_cycle;Max_cycle;Signal;HPM_P1;HPM_P2
2021/08/08 00:00:13;;;;;;;7.17;4.97;;;;;;;12.76;83.89;94554.14;1680658;83;21522;-53
2021/08/08 00:02:41;;;;;;;17.98;12.00;;;;;;;12.73;83.79;94557.06;1700632;84;21015;-55
2021/08/08 00:05:10;;;;;;;45.75;31.68;;;;;;;12.69;84.09;94559.23;1699379;83;21155;-53
2021/08/08 00:07:36;;;;;;;37.95;14.58;;;;;;;12.68;84.22;94553.56;1689849;83;20964;-53
2021/08/08 00:10:07;;;;;;;28.65;10.20;;;;;;;12.65;84.64;94558.60;1698239;83;21014;-53
2021/08/08 00:12:35;;;;;;;25.10;8.10;;;;;;;12.59;84.66;94552.97;1691368;83;20979;-53
2021/08/08 00:15:05;;;;;;;30.45;8.40;;;;;;;12.53;84.80;94555.44;1690423;83;21542;-54
2021/08/08 00:17:32;;;;;;;23.12;9.20;;;;;;;12.48;85.06;94560.18;1690562;83;21162;-54
2021/08/08 00:20:00;;;;;;;17.60;8.65;;;;;;;12.45;85.21;94554.84;1690863;84;20976;-54
2021/08/08 00:22:27;;;;;;;14.53;8.85;;;;;;;12.40;85.06;94549.33;1686927;83;21168;-54
2021/08/08 00:24:53;;;;;;;17.85;7.37;;;;;;;12.31;84.95;94550.73;1688507;83;21501;-52
2021/08/08 00:27:20;;;;;;;11.83;7.30;;;;;;;12.28;85.06;94554.39;1684559;83;21037;-53
2021/08/08 00:29:48;;;;;;;18.10;8.40;;;;;;;12.26;85.15;94556.85;1687144;84;21161;-56
2021/08/08 00:32:14;;;;;;;12.30;7.17;;;;;;;12.24;85.39;94557.94;1699026;83;21597;-53
2021/08/08 00:34:41;;;;;;;13.65;9.03;;;;;;;12.21;85.53;94554.72;1705183;83;20983;-53
2021/08/08 00:37:09;;;;;;;26.25;10.05;;;;;;;12.18;85.80;94548.76;1695062;83;21050;-55
2021/08/08 00:39:36;;;;;;;19.30;7.95;;;;;;;12.18;85.92;94545.22;1705539;83;21049;-53
2021/08/08 00:42:04;;;;;;;22.45;9.23;;;;;;;12.19;85.86;94554.42;1676809;85;21815;-53
2021/08/08 00:44:32;;;;;;;31.33;13.58;;;;;;;12.18;85.73;94544.63;1664841;83;21034;-54
2021/08/08 00:46:59;;;;;;;30.95;12.25;;;;;;;12.18;85.63;94550.14;1669998;84;21098;-54
2021/08/08 00:49:26;;;;;;;24.23;12.15;;;;;;;12.18;85.47;94546.59;1670813;85;21065;-53
2021/08/08 00:51:53;;;;;;;21.77;10.32;;;;;;;12.16;85.38;94553.97;1665326;85;21054;-53
2021/08/08 00:54:22;;;;;;;14.20;9.50;;;;;;;12.16;85.47;94547.08;1665473;85;22446;-53
2021/08/08 00:56:49;;;;;;;24.92;9.00;;;;;;;12.23;85.38;94551.52;1677611;85;21021;-53
2021/08/08 00:59:16;;;;;;;21.97;7.22;;;;;;;12.25;85.27;94545.67;1677792;85;21132;-53
2021/08/08 01:01:46;;;;;;;14.63;6.05;;;;;;;12.28;85.14;94552.27;1673704;85;21002;-52
2021/08/08 01:04:21;;;;;;;8.23;5.25;;;;;;;12.30;84.79;94549.18;1669478;85;20970;-53
2021/08/08 01:06:59;;;;;;;5.17;4.67;;;;;;;12.29;84.66;94552.42;1670102;85;21037;-52
2021/08/08 01:09:31;;;;;;;10.85;5.80;;;;;;;12.27;84.33;94554.25;1673703;85;21663;-55
2021/08/08 01:11:58;;;;;;;7.67;5.53;;;;;;;12.24;84.21;94560.69;1666248;85;21058;-53
2021/08/08 01:14:25;;;;;;;8.63;5.50;;;;;;;12.23;84.12;94560.54;1635922;85;20990;-53
2021/08/08 01:16:52;;;;;;;8.13;6.15;;;;;;;12.19;84.26;94558.56;1678024;84;21065;-53
2021/08/08 01:19:21;;;;;;;16.55;6.72;;;;;;;12.15;84.42;94557.18;1671853;85;21191;-53
2021/08/08 01:21:48;;;;;;;9.53;6.03;;;;;;;12.13;84.68;94554.90;1675017;85;21459;-52
2021/08/08 01:24:16;;;;;;;9.85;5.90;;;;;;;12.14;85.09;94559.78;1680371;84;21077;-54
2021/08/08 01:26:46;;;;;;;11.90;5.67;;;;;;;12.14;85.13;94555.05;1676826;83;21057;-53
2021/08/08 01:29:13;;;;;;;13.13;6.40;;;;;;;12.18;85.17;94566.69;1681769;83;20994;-54
2021/08/08 01:31:50;;;;;;;8.58;5.92;;;;;;;12.14;84.98;94561.16;1690147;83;21502;-54
2021/08/08 01:34:18;;;;;;;12.07;5.55;;;;;;;12.11;85.17;94561.47;1680513;83;21022;-53
2021/08/08 01:36:47;;;;;;;5.78;5.17;;;;;;;12.08;84.60;94565.77;1684701;83;21710;-53
2021/08/08 01:39:18;;;;;;;10.98;5.42;;;;;;;12.00;84.54;94569.45;1671195;84;21089;-53
2021/08/08 01:41:52;;;;;;;12.10;6.55;;;;;;;11.95;84.60;94568.70;1665014;85;20959;-53
2021/08/08 01:44:20;;;;;;;10.32;6.20;;;;;;;11.91;84.72;94571.45;1658551;84;21169;-55
2021/08/08 01:46:52;;;;;;;13.83;6.55;;;;;;;11.86;84.92;94565.92;1660664;85;21057;-53
2021/08/08 01:49:24;;;;;;;10.58;6.08;;;;;;;11.84;85.02;94560.70;1673172;85;21157;-53
2021/08/08 01:51:53;;;;;;;10.08;5.67;;;;;;;11.82;85.27;94561.19;1659488;85;21088;-54
2021/08/08 01:54:22;;;;;;;7.75;5.95;;;;;;;11.83;85.54;94568.23;1646324;85;21020;-53
2021/08/08 01:56:52;;;;;;;5.75;5.08;;;;;;;11.83;85.69;94566.06;1655266;85;21063;-53
2021/08/08 01:59:20;;;;;;;8.63;5.78;;;;;;;11.79;85.68;94564.86;1664062;85;21117;-53
2021/08/08 02:01:47;;;;;;;9.38;5.87;;;;;;;11.73;85.97;94562.55;1663185;85;21573;-53
2021/08/08 02:04:21;;;;;;;16.20;6.00;;;;;;;11.66;86.15;94558.72;1673135;85;20974;-54
2021/08/08 02:06:49;;;;;;;21.15;7.03;;;;;;;11.62;86.20;94555.36;1662081;85;21060;-53
2021/08/08 02:09:19;;;;;;;22.05;6.60;;;;;;;11.59;86.56;94554.13;1680006;83;21079;-53
2021/08/08 02:11:48;;;;;;;20.00;7.45;;;;;;;11.58;86.84;94553.38;1679938;84;21168;-56
2021/08/08 02:14:16;;;;;;;13.30;5.37;;;;;;;11.57;86.91;94562.08;1693317;83;21652;-54
2021/08/08 02:16:45;;;;;;;18.82;5.92;;;;;;;11.57;86.73;94555.20;1691280;83;21470;-53
2021/08/08 02:19:14;;;;;;;10.75;6.30;;;;;;;11.53;86.63;94556.68;1683824;83;21549;-54
2021/08/08 02:21:45;;;;;;;16.73;6.10;;;;;;;11.51;86.67;94560.51;1683532;83;21969;-52
2021/08/08 02:24:12;;;;;;;8.03;5.72;;;;;;;11.50;86.75;94565.11;1679189;83;21457;-54
2021/08/08 02:26:41;;;;;;;11.83;5.87;;;;;;;11.44;86.84;94556.69;1683445;83;20995;-53
2021/08/08 02:29:09;;;;;;;17.65;5.80;;;;;;;11.40;87.13;94569.84;1686117;84;21073;-55
2021/08/08 02:31:39;;;;;;;18.27;6.20;;;;;;;11.39;87.29;94562.77;1680900;83;21617;-52
2021/08/08 02:34:08;;;;;;;8.88;5.85;;;;;;;11.38;87.37;94576.39;1678846;84;21152;-53
2021/08/08 02:36:36;;;;;;;11.10;5.92;;;;;;;11.36;87.42;94577.46;1666109;84;21048;-53
2021/08/08 02:39:03;;;;;;;14.35;6.12;;;;;;;11.34;87.58;94578.53;1685987;83;21067;-54
2021/08/08 02:41:31;;;;;;;11.90;5.72;;;;;;;11.31;87.41;94586.33;1683768;84;21684;-53
2021/08/08 02:44:00;;;;;;;7.47;5.20;;;;;;;11.27;87.59;94577.45;1660892;85;21015;-53
2021/08/08 02:46:30;;;;;;;19.23;7.00;;;;;;;11.28;87.61;94578.98;1653577;85;21160;-54
2021/08/08 02:48:57;;;;;;;11.05;7.15;;;;;;;11.31;87.56;94588.34;1641069;84;20974;-54
2021/08/08 02:51:25;;;;;;;11.90;6.47;;;;;;;11.32;87.21;94587.86;1660377;84;20967;-54
2021/08/08 02:53:53;;;;;;;17.80;7.05;;;;;;;11.31;86.89;94584.20;1694310;84;21205;-53
2021/08/08 02:56:20;;;;;;;10.35;6.03;;;;;;;11.28;86.81;94583.71;1686188;83;21118;-54
2021/08/08 02:58:47;;;;;;;9.65;5.83;;;;;;;11.29;86.75;94585.24;1678481;84;21123;-54
2021/08/08 03:01:14;;;;;;;7.53;5.30;;;;;;;11.28;86.87;94590.00;1693134;84;21002;-54
2021/08/08 03:03:42;;;;;;;10.72;6.00;;;;;;;11.28;87.25;94577.61;1685952;84;21065;-54
2021/08/08 03:06:12;;;;;;;14.47;6.33;;;;;;;11.29;86.81;94581.89;1686350;84;21070;-54
2021/08/08 03:08:42;;;;;;;9.73;6.22;;;;;;;11.29;86.66;94592.91;1687359;84;21133;-53
2021/08/08 03:11:11;;;;;;;16.55;5.80;;;;;;;11.29;86.50;94597.04;1661865;84;21210;-56
2021/08/08 03:13:40;;;;;;;10.72;6.78;;;;;;;11.31;86.46;94596.59;1688305;83;21053;-53
2021/08/08 03:16:07;;;;;;;8.78;6.95;;;;;;;11.31;86.18;94604.23;1675965;84;21054;-53
2021/08/08 03:18:36;;;;;;;18.23;9.25;;;;;;;11.32;86.10;94602.27;1679238;84;21635;-53
2021/08/08 03:21:04;;;;;;;11.97;6.40;;;;;;;11.30;86.03;94604.08;1689724;84;21101;-53
2021/08/08 03:23:31;;;;;;;12.28;6.60;;;;;;;11.28;86.11;94607.12;1690095;84;21045;-53
2021/08/08 03:25:58;;;;;;;10.50;4.90;;;;;;;11.27;86.09;94616.01;1688345;84;20991;-53
2021/08/08 03:28:25;;;;;;;10.80;5.87;;;;;;;11.26;86.21;94619.98;1684117;84;21028;-54
2021/08/08 03:30:52;;;;;;;10.05;5.35;;;;;;;11.26;86.38;94617.83;1685363;84;21063;-53
2021/08/08 03:33:19;;;;;;;13.75;6.00;;;;;;;11.25;86.49;94614.33;1683065;83;21015;-53
2021/08/08 03:35:46;;;;;;;12.98;5.85;;;;;;;11.29;86.49;94608.66;1701580;83;21411;-53
2021/08/08 03:38:13;;;;;;;8.10;5.65;;;;;;;11.35;86.31;94608.23;1690538;83;21086;-54
2021/08/08 03:40:41;;;;;;;14.35;5.37;;;;;;;11.41;85.99;94610.53;1674005;83;21030;-53
2021/08/08 03:43:08;;;;;;;9.90;5.05;;;;;;;11.44;86.13;94610.39;1658050;84;21573;-53
2021/08/08 03:45:35;;;;;;;9.38;5.03;;;;;;;11.54;85.97;94609.18;1655437;85;20986;-52
2021/08/08 03:48:03;;;;;;;7.08;4.80;;;;;;;11.60;85.55;94611.53;1636895;85;21147;-53
2021/08/08 03:50:30;;;;;;;8.65;5.22;;;;;;;11.66;85.16;94617.97;1656372;84;21062;-54
2021/08/08 03:52:57;;;;;;;8.23;5.55;;;;;;;11.69;84.96;94621.18;1640806;85;21526;-54
2021/08/08 03:55:24;;;;;;;8.73;5.10;;;;;;;11.70;84.92;94628.22;1646256;85;21156;-53
2021/08/08 03:57:55;;;;;;;11.38;5.22;;;;;;;11.71;85.20;94633.89;1652114;85;21675;-53
2021/08/08 04:00:22;;;;;;;13.03;6.00;;;;;;;11.72;85.23;94640.19;1643898;85;21244;-53
2021/08/08 04:02:49;;;;;;;11.35;5.65;;;;;;;11.64;85.15;94634.80;1652642;85;21023;-53
2021/08/08 04:05:18;;;;;;;23.32;6.62;;;;;;;11.61;85.30;94632.36;1657907;84;21547;-53
2021/08/08 04:07:46;;;;;;;11.48;4.97;;;;;;;11.57;85.26;94630.33;1649599;85;21027;-53
2021/08/08 04:10:14;;;;;;;17.17;6.03;;;;;;;11.54;85.47;94628.46;1643492;85;21106;-54
2021/08/08 04:12:41;;;;;;;11.05;5.15;;;;;;;11.54;85.57;94638.11;1671095;84;21151;-55
2021/08/08 04:15:10;;;;;;;26.77;6.72;;;;;;;11.52;85.77;94642.55;1641242;85;21176;-57
2021/08/08 04:17:37;;;;;;;11.38;6.28;;;;;;;11.55;86.14;94638.26;1686547;83;21014;-54
2021/08/08 04:20:05;;;;;;;12.28;4.87;;;;;;;11.64;86.08;94630.06;1685681;83;21113;-55
2021/08/08 04:22:32;;;;;;;10.68;5.47;;;;;;;11.76;86.17;94633.91;1683761;84;21066;-54
2021/08/08 04:24:59;;;;;;;12.13;5.08;;;;;;;11.85;85.98;94631.92;1694365;83;21186;-54
2021/08/08 04:27:27;;;;;;;7.53;5.30;;;;;;;11.94;85.87;94626.41;1682250;83;21042;-54
2021/08/08 04:29:53;;;;;;;6.50;5.50;;;;;;;11.98;85.81;94625.67;1680207;84;21010;-53
2021/08/08 04:32:21;;;;;;;11.45;5.33;;;;;;;12.06;85.92;94633.78;1681242;83;21037;-54
2021/08/08 04:34:47;;;;;;;10.93;5.45;;;;;;;12.13;85.86;94632.71;1679485;83;21692;-52
2021/08/08 04:37:15;;;;;;;13.55;4.65;;;;;;;12.20;85.90;94646.97;1676305;84;21147;-54
2021/08/08 04:39:42;;;;;;;8.23;5.70;;;;;;;12.30;85.71;94645.72;1681792;83;21551;-54
2021/08/08 04:42:09;;;;;;;11.33;5.45;;;;;;;12.41;85.71;94649.42;1676350;83;21086;-55
2021/08/08 04:44:36;;;;;;;25.65;5.95;;;;;;;12.51;85.61;94646.80;1678952;84;21584;-54
2021/08/08 04:47:04;;;;;;;12.33;5.65;;;;;;;12.62;85.45;94643.71;1668242;85;21026;-54
2021/08/08 04:49:31;;;;;;;5.53;4.85;;;;;;;12.74;85.30;94635.87;1656427;84;21131;-54
2021/08/08 04:52:02;;;;;;;10.80;5.00;;;;;;;12.87;85.18;94633.71;1652130;85;21083;-53
2021/08/08 04:54:30;;;;;;;5.72;4.85;;;;;;;13.00;85.01;94630.16;1642320;85;21459;-54
2021/08/08 04:56:57;;;;;;;6.10;5.25;;;;;;;13.13;84.92;94634.87;1642282;84;21042;-54
2021/08/08 04:59:25;;;;;;;8.10;5.30;;;;;;;13.28;84.57;94628.20;1666467;83;21006;-53
2021/08/08 05:01:52;;;;;;;9.63;4.90;;;;;;;13.38;84.28;94620.64;1684368;83;21153;-55
2021/08/08 05:04:19;;;;;;;7.62;4.33;;;;;;;13.49;83.94;94623.67;1705596;83;21507;-56
2021/08/08 05:06:46;;;;;;;8.83;4.28;;;;;;;13.56;83.62;94620.55;1698106;83;21525;-54
2021/08/08 05:09:13;;;;;;;10.40;4.50;;;;;;;13.63;83.42;94615.45;1685915;83;21005;-55
2021/08/08 05:11:40;;;;;;;6.65;4.87;;;;;;;13.73;83.32;94615.55;1702465;83;21015;-54
2021/08/08 05:14:07;;;;;;;7.45;5.33;;;;;;;13.81;82.90;94620.11;1683443;83;21127;-55
2021/08/08 05:16:37;;;;;;;8.05;5.45;;;;;;;13.85;82.56;94625.59;1684642;83;21058;-57
2021/08/08 05:19:05;;;;;;;5.17;4.67;;;;;;;13.92;82.37;94619.73;1688064;83;21036;-54
2021/08/08 05:21:34;;;;;;;5.20;4.70;;;;;;;14.03;82.48;94626.11;1688694;83;21062;-54
2021/08/08 05:24:01;;;;;;;10.58;5.53;;;;;;;14.19;82.28;94625.71;1689162;83;21084;-55
2021/08/08 05:26:29;;;;;;;9.73;5.75;;;;;;;14.34;81.70;94616.84;1700814;83;21933;-54
2021/08/08 05:28:56;;;;;;;8.48;5.47;;;;;;;14.43;81.22;94616.74;1691469;84;21522;-52
2021/08/08 05:31:24;;;;;;;5.92;4.28;;;;;;;14.51;80.77;94608.38;1690335;83;20999;-56
2021/08/08 05:33:50;;;;;;;10.35;5.97;;;;;;;14.60;80.52;94614.45;1697955;82;21071;-54
2021/08/08 05:36:17;;;;;;;8.28;4.60;;;;;;;14.69;80.24;94617.89;1704526;83;20970;-54
2021/08/08 05:38:44;;;;;;;5.60;5.05;;;;;;;14.79;79.95;94623.47;1703622;83;21793;-54
2021/08/08 05:41:12;;;;;;;4.42;4.00;;;;;;;14.91;79.55;94612.73;1695339;83;20982;-58
2021/08/08 05:43:39;;;;;;;5.30;4.60;;;;;;;15.05;79.11;94608.42;1680902;82;21452;-55
2021/08/08 05:46:06;;;;;;;10.53;4.30;;;;;;;15.15;78.41;94596.01;1667048;84;21067;-54
2021/08/08 05:48:33;;;;;;;12.37;4.60;;;;;;;15.22;78.16;94600.51;1677679;84;21014;-57
2021/08/08 05:51:00;;;;;;;12.68;5.28;;;;;;;15.34;77.97;94593.93;1678842;84;21158;-54
2021/08/08 05:53:27;;;;;;;8.73;4.72;;;;;;;15.47;77.54;94591.62;1681909;84;21046;-54
2021/08/08 05:55:54;;;;;;;4.05;3.58;;;;;;;15.62;77.02;94581.86;1682657;84;21050;-55
2021/08/08 05:58:21;;;;;;;5.47;3.50;;;;;;;15.74;76.35;94584.30;1681956;84;21090;-54
2021/08/08 06:00:48;;;;;;;4.80;4.00;;;;;;;15.85;75.87;94584.45;1679875;84;21058;-54
2021/08/08 06:03:15;;;;;;;4.53;3.90;;;;;;;15.96;75.64;94586.00;1680836;84;21143;-55
2021/08/08 06:05:43;;;;;;;9.63;4.05;;;;;;;16.07;75.39;94589.53;1679965;84;21070;-54
2021/08/08 06:08:10;;;;;;;4.42;3.58;;;;;;;16.16;75.00;94587.38;1685319;84;21046;-57
2021/08/08 06:10:37;;;;;;;4.45;3.45;;;;;;;16.27;74.95;94590.27;1685545;84;20958;-55
2021/08/08 06:13:04;;;;;;;4.78;3.27;;;;;;;16.37;74.37;94584.75;1680536;83;21031;-55
2021/08/08 06:15:32;;;;;;;3.85;3.25;;;;;;;16.47;73.84;94588.27;1676820;84;21160;-52
2021/08/08 06:18:01;;;;;;;6.10;3.47;;;;;;;16.55;73.45;94581.02;1677966;84;21062;-54
2021/08/08 06:20:30;;;;;;;3.45;3.15;;;;;;;16.67;72.88;94574.34;1677118;84;21074;-54
2021/08/08 06:22:57;;;;;;;3.52;3.22;;;;;;;16.79;72.44;94564.09;1677443;84;21034;-54
2021/08/08 06:25:24;;;;;;;3.20;2.85;;;;;;;16.87;72.19;94560.38;1676060;83;21150;-54
2021/08/08 06:27:58;;;;;;;10.65;4.10;;;;;;;16.95;71.90;94564.23;1675983;84;21498;-54
2021/08/08 06:30:27;;;;;;;7.10;4.00;;;;;;;17.03;71.79;94556.98;1671192;85;20951;-54
2021/08/08 06:32:54;;;;;;;5.35;3.90;;;;;;;17.15;71.62;94554.44;1672227;84;20998;-53
2021/08/08 06:35:21;;;;;;;7.70;4.15;;;;;;;17.28;71.32;94558.19;1671925;85;21018;-55
2021/08/08 06:37:48;;;;;;;5.53;3.77;;;;;;;17.39;71.27;94554.11;1680458;85;21430;-55
2021/08/08 06:40:16;;;;;;;12.73;5.12;;;;;;;17.48;71.10;94546.34;1665760;84;21137;-54
2021/08/08 06:42:45;;;;;;;9.05;3.90;;;;;;;17.56;70.93;94542.47;1671430;85;21128;-55
2021/08/08 06:45:14;;;;;;;9.35;3.95;;;;;;;17.64;70.66;94542.89;1676504;85;21068;-54
2021/08/08 06:47:41;;;;;;;11.15;3.10;;;;;;;17.78;70.38;94548.15;1666335;84;21074;-53
2021/08/08 06:50:10;;;;;;;17.57;8.43;;;;;;;17.90;69.82;94546.95;1675387;85;21045;-56
2021/08/08 06:52:37;;;;;;;5.22;3.90;;;;;;;18.01;69.89;94547.02;1675890;84;21044;-55
2021/08/08 06:55:05;;;;;;;7.28;3.20;;;;;;;18.16;69.14;94548.98;1667423;85;21080;-54
2021/08/08 06:57:32;;;;;;;9.00;3.12;;;;;;;18.27;68.72;94551.95;1675425;84;21519;-54
2021/08/08 07:00:02;;;;;;;6.47;3.50;;;;;;;18.39;68.71;94550.73;1672507;85;20998;-54
2021/08/08 07:02:30;;;;;;;3.75;3.33;;;;;;;18.49;68.84;94549.23;1664747;85;21067;-54
2021/08/08 07:04:57;;;;;;;6.75;3.35;;;;;;;18.60;68.16;94542.91;1671434;85;21179;-55
2021/08/08 07:07:24;;;;;;;4.08;3.70;;;;;;;18.71;67.61;94542.95;1682518;83;21296;-54
2021/08/08 07:09:53;;;;;;;9.80;4.50;;;;;;;18.83;67.06;94546.64;1690701;83;21087;-57
2021/08/08 07:12:22;;;;;;;9.40;5.12;;;;;;;18.96;66.74;94539.94;1693887;83;21093;-56
2021/08/08 07:14:49;;;;;;;4.47;3.77;;;;;;;19.09;66.24;94538.04;1679881;83;21113;-54
2021/08/08 07:17:17;;;;;;;6.12;2.87;;;;;;;19.21;65.11;94543.13;1684914;83;21867;-55
2021/08/08 07:19:44;;;;;;;6.40;3.12;;;;;;;19.30;64.32;94537.31;1681810;83;20951;-55
2021/08/08 07:22:12;;;;;;;5.80;3.80;;;;;;;19.42;63.58;94546.43;1688259;83;20998;-56
2021/08/08 07:24:40;;;;;;;8.55;4.25;;;;;;;19.52;63.72;94543.52;1693911;83;21089;-55
2021/08/08 07:27:08;;;;;;;12.82;4.10;;;;;;;19.63;63.52;94538.67;1680005;84;20955;-55
2021/08/08 07:29:36;;;;;;;10.40;4.40;;;;;;;19.77;63.38;94537.60;1682679;83;21294;-54
2021/08/08 07:32:05;;;;;;;7.50;4.35;;;;;;;19.90;63.07;94535.03;1687869;83;21084;-54
2021/08/08 07:34:33;;;;;;;9.63;3.70;;;;;;;20.03;62.56;94543.66;1686354;83;21122;-55
2021/08/08 07:37:02;;;;;;;7.05;3.83;;;;;;;20.14;62.42;94535.23;1683531;83;21095;-55
2021/08/08 07:39:32;;;;;;;8.05;4.60;;;;;;;20.26;62.65;94546.49;1684184;83;21100;-54
2021/08/08 07:41:59;;;;;;;4.42;3.37;;;;;;;20.41;62.40;94534.36;1660600;85;20958;-54
2021/08/08 07:44:27;;;;;;;6.62;3.83;;;;;;;20.56;61.87;94538.98;1656827;85;21107;-54
2021/08/08 07:46:55;;;;;;;6.80;3.65;;;;;;;20.70;61.28;94537.89;1669169;84;21169;-54
2021/08/08 07:49:22;;;;;;;5.17;3.40;;;;;;;20.83;60.55;94537.45;1665477;83;21548;-57
2021/08/08 07:51:50;;;;;;;3.37;2.67;;;;;;;20.95;59.94;94540.93;1657984;85;21052;-56
2021/08/08 07:54:17;;;;;;;6.15;3.50;;;;;;;21.06;59.57;94550.00;1647984;85;21966;-55
2021/08/08 07:56:46;;;;;;;6.30;3.37;;;;;;;21.18;59.17;94554.87;1671294;85;21001;-54
2021/08/08 07:59:14;;;;;;;5.67;3.12;;;;;;;21.30;58.93;94547.27;1666566;85;21012;-55
2021/08/08 08:01:42;;;;;;;7.65;3.30;;;;;;;21.43;58.35;94546.64;1672728;85;21511;-55
2021/08/08 08:04:09;;;;;;;6.83;3.77;;;;;;;21.57;58.36;94542.08;1662114;85;21107;-57
2021/08/08 08:06:37;;;;;;;5.35;2.98;;;;;;;21.74;58.04;94550.34;1684250;85;21769;-54
2021/08/08 08:09:05;;;;;;;4.22;3.17;;;;;;;21.90;57.71;94536.17;1652348;85;20969;-55
2021/08/08 08:11:32;;;;;;;3.40;2.75;;;;;;;22.03;56.52;94536.92;1651770;85;21089;-56
2021/08/08 08:14:00;;;;;;;7.85;2.80;;;;;;;22.12;56.12;94528.27;1651618;85;21086;-54
2021/08/08 08:16:27;;;;;;;6.72;2.92;;;;;;;22.22;55.85;94535.03;1665618;84;21622;-57
2021/08/08 08:18:55;;;;;;;2.80;2.40;;;;;;;22.33;55.56;94536.28;1664649;85;21829;-54
2021/08/08 08:21:24;;;;;;;6.62;2.87;;;;;;;22.44;55.29;94541.05;1656286;85;21053;-56
2021/08/08 08:23:51;;;;;;;3.80;3.00;;;;;;;22.53;54.82;94532.26;1666384;85;20977;-54
2021/08/08 08:26:18;;;;;;;5.08;2.40;;;;;;;22.62;54.48;94530.49;1669003;85;21084;-53
2021/08/08 08:28:45;;;;;;;5.42;2.35;;;;;;;22.70;54.76;94532.80;1672801;85;20961;-55
2021/08/08 08:31:14;;;;;;;3.60;2.60;;;;;;;22.82;53.91;94528.55;1659983;85;21166;-54
2021/08/08 08:33:42;;;;;;;2.05;1.85;;;;;;;22.93;52.12;94529.14;1661297;83;21123;-56
2021/08/08 08:36:09;;;;;;;2.27;2.02;;;;;;;23.02;51.45;94528.74;1689389;83;21099;-57
2021/08/08 08:38:37;;;;;;;3.92;1.87;;;;;;;23.13;50.80;94534.23;1681205;83;21007;-55
2021/08/08 08:41:04;;;;;;;5.08;2.40;;;;;;;23.25;50.33;94534.81;1652351;84;21538;-53
2021/08/08 08:43:32;;;;;;;4.20;2.02;;;;;;;23.37;49.77;94534.09;1677620;84;21216;-55
2021/08/08 08:46:00;;;;;;;3.70;3.30;;;;;;;23.51;49.50;94540.50;1664024;84;21114;-55
2021/08/08 08:48:28;;;;;;;4.75;2.80;;;;;;;23.66;50.27;94540.75;1667643;85;20973;-54
2021/08/08 08:50:57;;;;;;;3.12;2.52;;;;;;;23.81;50.92;94545.22;1680903;85;21024;-54
2021/08/08 08:53:26;;;;;;;3.40;2.80;;;;;;;23.98;50.25;94545.05;1674551;85;20956;-55
2021/08/08 08:55:54;;;;;;;4.42;2.22;;;;;;;24.13;50.32;94543.23;1664263;85;21135;-54
2021/08/08 08:58:21;;;;;;;6.80;1.90;;;;;;;24.29;48.71;94537.17;1668069;85;21005;-54
2021/08/08 09:00:49;;;;;;;3.52;2.42;;;;;;;24.45;47.93;94540.30;1661374;84;21484;-55
2021/08/08 09:03:18;;;;;;;5.47;2.35;;;;;;;24.57;47.77;94538.81;1657158;84;21042;-56
2021/08/08 09:05:44;;;;;;;4.90;2.35;;;;;;;24.69;46.91;94534.45;1674711;85;20957;-56
2021/08/08 09:08:13;;;;;;;3.60;2.10;;;;;;;24.81;46.64;94546.98;1658203;84;21148;-56
2021/08/08 09:10:40;;;;;;;4.92;1.95;;;;;;;24.88;46.31;94537.23;1640746;85;21351;-57
2021/08/08 09:13:08;;;;;;;3.08;2.02;;;;;;;24.95;46.32;94537.95;1636347;85;21129;-55
2021/08/08 09:15:42;;;;;;;2.85;1.90;;;;;;;25.03;45.71;94540.86;1656924;84;20990;-54
2021/08/08 09:18:17;;;;;;;7.60;2.33;;;;;;;25.11;45.43;94540.30;1683151;84;22392;-57
2021/08/08 09:20:46;;;;;;;15.08;2.40;;;;;;;25.21;45.94;94533.69;1675441;84;20987;-54
2021/08/08 09:23:14;;;;;;;6.20;2.58;;;;;;;25.35;45.80;94530.93;1692754;84;21087;-55
2021/08/08 09:25:52;;;;;;;7.35;2.37;;;;;;;25.48;45.28;94530.84;1695682;84;21274;-54
2021/08/08 09:28:24;;;;;;;4.83;2.60;;;;;;;25.62;44.80;94534.34;1666049;84;21002;-54
2021/08/08 09:30:52;;;;;;;4.60;2.10;;;;;;;25.75;44.73;94525.82;1695614;83;21091;-54
2021/08/08 09:33:19;;;;;;;4.85;2.17;;;;;;;25.85;44.03;94517.02;1693433;84;21174;-55
2021/08/08 09:35:50;;;;;;;4.33;2.02;;;;;;;25.94;43.72;94522.92;1694084;84;20949;-55
2021/08/08 09:38:18;;;;;;;3.72;1.90;;;;;;;26.05;43.23;94524.02;1691526;83;21039;-54
2021/08/08 09:40:57;;;;;;;4.10;2.10;;;;;;;26.16;42.93;94530.11;1680160;84;21040;-56
2021/08/08 09:43:26;;;;;;;9.50;2.00;;;;;;;26.28;42.83;94529.91;1677849;85;21563;-54
2021/08/08 09:45:52;;;;;;;7.12;2.15;;;;;;;26.41;42.76;94529.05;1663373;85;21171;-54
2021/08/08 09:48:20;;;;;;;3.77;3.33;;;;;;;26.50;42.61;94529.31;1650116;85;21509;-56
2021/08/08 09:50:48;;;;;;;4.83;2.15;;;;;;;26.60;42.29;94538.02;1645523;85;20991;-55
2021/08/08 09:53:20;;;;;;;8.28;1.57;;;;;;;26.73;42.46;94528.80;1677355;84;20973;-55
2021/08/08 09:55:47;;;;;;;2.92;2.10;;;;;;;26.88;42.16;94522.44;1654347;84;26725;-53
2021/08/08 09:58:22;;;;;;;4.92;1.90;;;;;;;27.04;41.19;94521.92;1663435;83;21145;-54
2021/08/08 10:00:51;;;;;;;6.03;2.10;;;;;;;27.18;39.89;94520.50;1672309;85;21019;-55
2021/08/08 10:03:19;;;;;;;3.05;1.70;;;;;;;27.32;41.02;94514.79;1675490;84;21501;-54
2021/08/08 10:05:46;;;;;;;10.00;1.90;;;;;;;27.49;39.57;94518.48;1669099;85;20987;-55
2021/08/08 10:08:16;;;;;;;2.42;1.90;;;;;;;27.65;38.58;94516.54;1675028;85;21544;-54
2021/08/08 10:10:48;;;;;;;3.70;2.08;;;;;;;27.82;38.76;94512.52;1672786;85;20931;-55
2021/08/08 10:13:39;;;;;;;2.47;1.50;;;;;;;28.03;36.25;94511.66;1670604;85;21070;-56
2021/08/08 10:16:09;;;;;;;3.62;1.47;;;;;;;28.27;36.40;94509.64;1669512;85;21024;-54
2021/08/08 10:18:41;;;;;;;3.67;1.40;;;;;;;28.59;34.06;94515.45;1663169;85;21000;-54
2021/08/08 10:21:09;;;;;;;1.65;1.22;;;;;;;28.84;31.72;94505.74;1672341;85;21070;-55
2021/08/08 10:23:37;;;;;;;4.53;1.22;;;;;;;29.15;31.11;94514.88;1677798;85;21764;-55
2021/08/08 10:26:05;;;;;;;3.85;1.50;;;;;;;29.44;30.80;94500.44;1664555;85;21553;-55
2021/08/08 10:28:33;;;;;;;2.42;1.22;;;;;;;29.75;29.88;94500.34;1653100;85;21061;-55
2021/08/08 10:31:01;;;;;;;3.27;1.22;;;;;;;30.08;30.35;94504.73;1681040;85;21450;-55
2021/08/08 10:33:28;;;;;;;3.55;1.27;;;;;;;30.40;29.06;94509.54;1676820;84;21442;-55
2021/08/08 10:35:55;;;;;;;6.28;1.98;;;;;;;30.66;28.99;94498.98;1667246;85;21154;-56
2021/08/08 10:38:23;;;;;;;6.25;1.75;;;;;;;30.93;28.98;94501.22;1672322;84;21022;-55
2021/08/08 10:40:50;;;;;;;4.30;1.20;;;;;;;31.15;27.56;94503.81;1674543;83;21115;-54
2021/08/08 10:43:31;;;;;;;3.58;1.55;;;;;;;31.24;27.50;94503.11;1678135;84;21522;-55
2021/08/08 10:46:06;;;;;;;5.47;1.67;;;;;;;31.41;27.28;94498.06;1679941;84;20983;-55
2021/08/08 10:48:35;;;;;;;2.85;1.35;;;;;;;31.63;27.41;94502.67;1680536;84;21141;-55
2021/08/08 10:51:03;;;;;;;6.50;1.15;;;;;;;31.86;26.87;94503.09;1680264;84;21045;-55
2021/08/08 10:53:32;;;;;;;2.20;1.10;;;;;;;32.09;27.01;94504.97;1680911;84;21526;-54
2021/08/08 10:56:08;;;;;;;7.00;1.32;;;;;;;32.31;26.66;94499.61;1679593;84;20996;-55
2021/08/08 10:58:39;;;;;;;5.47;1.75;;;;;;;32.60;26.24;94502.50;1678723;84;21113;-55
2021/08/08 11:01:22;;;;;;;1.77;1.25;;;;;;;32.87;25.52;94507.41;1678589;84;21163;-56
2021/08/08 11:03:57;;;;;;;2.33;2.00;;;;;;;33.08;25.45;94496.15;1677557;84;21673;-56
2021/08/08 11:06:25;;;;;;;7.83;2.15;;;;;;;33.34;24.94;94501.70;1678180;84;21054;-55
2021/08/08 11:08:56;;;;;;;5.45;2.75;;;;;;;33.62;24.90;94498.05;1664638;84;21163;-56
2021/08/08 11:11:31;;;;;;;4.22;1.35;;;;;;;34.00;25.39;94500.09;1680440;84;21010;-55
2021/08/08 11:14:17;;;;;;;4.58;3.47;;;;;;;34.40;24.26;94500.76;1681679;83;22160;-54
2021/08/08 11:16:47;;;;;;;3.60;1.92;;;;;;;34.62;24.84;94500.17;1700798;83;21007;-55
2021/08/08 11:19:14;;;;;;;2.52;1.55;;;;;;;34.92;23.17;94494.33;1696493;83;21081;-55
2021/08/08 11:21:42;;;;;;;2.65;1.17;;;;;;;35.03;23.72;94495.08;1695408;83;21059;-54
2021/08/08 11:24:10;;;;;;;1.75;1.20;;;;;;;35.31;22.93;94499.15;1693009;83;20959;-55
2021/08/08 11:26:38;;;;;;;3.00;1.37;;;;;;;35.68;22.47;94497.95;1682145;83;21418;-55
2021/08/08 11:29:06;;;;;;;2.50;1.50;;;;;;;35.94;22.26;94486.05;1696313;83;20952;-54
2021/08/08 11:31:35;;;;;;;2.72;1.65;;;;;;;36.20;23.11;94490.55;1703201;83;21176;-56
2021/08/08 11:34:05;;;;;;;3.72;2.27;;;;;;;36.53;24.37;94494.03;1703797;83;21046;-56